Thirsk, United Kingdom
Current Conditions -  °F | °C
As of 1:50 PM on Monday 24 Nov 2014 (Local Time) from EGXD Reporting Station
Broken Clouds Broken Clouds  
Wind Chill: 50°   Ceiling: 20000
Heat Index: 50°   Visibility: 6mi
Dew Point: 43°   Wind: 5mph
Humidity: 76%   Direction: 280°W
Pressure: 30.27"   Gusts: NA
Location:  54.23°N, 1.34°W
Report Text: EGXD 241350Z 28004KT 9999 FEW040 BKN200 10/06 Q1025 BLU NOSIG
Loading
Personal Weather Stations






























Interactive Weather Map New forecast layout! Learn more

10-Day Weather Forecast

Advertisements
Track Severe Weather on mobile